Wibaux, Montana
Current Conditions -  °F | °C
As of 1:55 AM on Friday 24 Oct 2014 (Local Time) from KGDV Reporting Station
Clear Clear  
Wind Chill: 39°   Ceiling: Unl
Heat Index: 43°   Visibility: 10mi
Dew Point: 34°   Wind: 6mph
Humidity: 70%   Direction: 180°S
Pressure: 29.84"   Gusts: NA
Location:  46.99°N, 104.19°W
Report Text: KGDV 240755Z AUTO 18005KT 10SM CLR 06/01 A2984 RMK AO1
Loading
Personal Weather Stations






























Interactive Weather Map
Tropical Storm Tracking
New forecast layout! Learn more

10-Day Weather Forecast

Advertisements
Track Severe Weather on mobile